createdAt,value
2022-08-07T00:00:26.178Z,18.90
2022-08-07T00:02:53.967Z,18.89
2022-08-07T00:05:23.641Z,18.81
2022-08-07T00:07:59.885Z,18.82
2022-08-07T00:10:30.818Z,18.69
2022-08-07T00:13:17.489Z,18.58
2022-08-07T00:15:52.590Z,18.78
2022-08-07T00:18:27.329Z,18.76
2022-08-07T00:21:03.504Z,18.71
2022-08-07T00:23:39.582Z,18.72
2022-08-07T00:26:13.235Z,18.68
2022-08-07T00:28:58.972Z,18.67
2022-08-07T00:31:37.499Z,18.58
2022-08-07T00:34:09.389Z,18.64
2022-08-07T00:36:42.786Z,18.53
2022-08-07T00:39:16.421Z,18.42
2022-08-07T00:42:01.962Z,18.57
2022-08-07T00:44:34.833Z,18.56
2022-08-07T00:47:06.568Z,18.55
2022-08-07T00:50:19.249Z,18.57
2022-08-07T00:52:33.354Z,18.52
2022-08-07T00:55:04.717Z,18.37
2022-08-07T00:57:38.159Z,18.41
2022-08-07T01:00:23.114Z,18.53
2022-08-07T01:02:51.284Z,18.53
2022-08-07T01:05:20.669Z,18.53
2022-08-07T01:07:51.895Z,18.45
2022-08-07T01:10:19.925Z,18.51
2022-08-07T01:12:53.495Z,18.19
2022-08-07T01:15:23.199Z,18.48
2022-08-07T01:18:10.452Z,18.09
2022-08-07T01:20:57.550Z,18.34
2022-08-07T01:23:38.406Z,18.36
2022-08-07T01:26:16.696Z,18.31
2022-08-07T01:28:51.763Z,18.16
2022-08-07T01:31:21.199Z,18.22
2022-08-07T01:33:56.067Z,18.21
2022-08-07T01:36:33.473Z,18.13
2022-08-07T01:39:10.125Z,18.15
2022-08-07T01:41:40.926Z,18.11
2022-08-07T01:44:27.275Z,18.05
2022-08-07T01:46:54.728Z,18.05
2022-08-07T01:49:22.331Z,18.03
2022-08-07T01:52:03.653Z,18.01
2022-08-07T01:54:38.422Z,17.94
2022-08-07T01:57:30.878Z,17.90
2022-08-07T02:00:13.902Z,17.88
2022-08-07T02:03:21.053Z,17.75
2022-08-07T02:05:53.599Z,17.76
2022-08-07T02:08:29.348Z,17.81
2022-08-07T02:11:00.034Z,17.85
2022-08-07T02:13:57.981Z,17.85
2022-08-07T02:16:32.916Z,17.75
2022-08-07T02:19:05.494Z,17.77
2022-08-07T02:21:58.655Z,17.80
2022-08-07T02:24:29.491Z,17.73
2022-08-07T02:27:01.346Z,17.74
2022-08-07T02:29:32.403Z,17.69
2022-08-07T02:32:04.152Z,17.63
2022-08-07T02:34:33.486Z,17.67
2022-08-07T02:37:08.058Z,17.66
2022-08-07T02:40:12.099Z,17.65
2022-08-07T02:42:33.836Z,17.63
2022-08-07T02:45:07.270Z,17.59
2022-08-07T02:47:52.475Z,17.60
2022-08-07T02:50:19.801Z,17.26
2022-08-07T02:53:07.029Z,17.49
2022-08-07T02:56:03.663Z,17.51
2022-08-07T02:58:34.691Z,17.45
2022-08-07T03:01:04.021Z,17.41
2022-08-07T03:03:50.062Z,17.27
2022-08-07T03:06:25.546Z,17.34
2022-08-07T03:08:54.558Z,17.28
2022-08-07T03:11:25.350Z,17.33
2022-08-07T03:13:56.462Z,17.30
2022-08-07T03:16:31.065Z,17.22
2022-08-07T03:19:00.714Z,17.31
2022-08-07T03:21:29.108Z,17.30
2022-08-07T03:24:20.399Z,17.24
2022-08-07T03:26:58.907Z,17.27
2022-08-07T03:29:51.876Z,17.18
2022-08-07T03:32:36.828Z,17.18
2022-08-07T03:35:18.524Z,17.19
2022-08-07T03:38:04.831Z,17.12
2022-08-07T03:40:36.486Z,17.18
2022-08-07T03:43:13.679Z,17.14
2022-08-07T03:45:43.440Z,17.20
2022-08-07T03:48:15.178Z,17.21
2022-08-07T03:50:56.234Z,17.18
2022-08-07T03:54:02.003Z,17.21
2022-08-07T03:56:33.188Z,17.20
2022-08-07T03:59:09.151Z,17.19
2022-08-07T04:01:45.213Z,17.18
2022-08-07T04:04:17.766Z,17.20
2022-08-07T04:06:51.546Z,17.15
2022-08-07T04:09:22.998Z,17.03
2022-08-07T04:12:25.108Z,17.04
2022-08-07T04:14:43.755Z,16.97
2022-08-07T04:17:20.307Z,17.10
2022-08-07T04:19:51.536Z,17.30
2022-08-07T04:22:19.895Z,17.73
2022-08-07T04:24:50.985Z,17.97
2022-08-07T04:27:25.376Z,18.27
2022-08-07T04:30:02.098Z,18.51
2022-08-07T04:32:34.537Z,18.78
2022-08-07T04:35:06.320Z,18.99
2022-08-07T04:38:00.967Z,19.20
2022-08-07T04:40:29.748Z,19.38
2022-08-07T04:43:01.608Z,19.65
2022-08-07T04:46:02.731Z,19.84
2022-08-07T04:49:47.446Z,20.08
2022-08-07T04:53:03.156Z,20.27
2022-08-07T04:58:13.248Z,20.43
2022-08-07T04:59:16.984Z,20.59
2022-08-07T05:01:50.587Z,20.69
2022-08-07T05:04:57.996Z,20.90
2022-08-07T05:07:48.089Z,20.97
2022-08-07T05:10:24.606Z,20.84
2022-08-07T05:14:44.924Z,20.68
2022-08-07T05:15:58.414Z,20.56
2022-08-07T05:18:40.117Z,20.66
2022-08-07T05:21:14.609Z,20.73
2022-08-07T05:23:56.668Z,20.84
2022-08-07T05:26:27.390Z,20.98
2022-08-07T05:28:59.169Z,21.08
2022-08-07T05:31:41.474Z,21.13
2022-08-07T05:34:20.411Z,21.23
2022-08-07T05:36:55.882Z,21.24
2022-08-07T05:40:16.608Z,21.32
2022-08-07T05:42:14.631Z,21.34
2022-08-07T05:45:14.370Z,21.32
2022-08-07T05:48:01.090Z,21.31
2022-08-07T05:50:34.581Z,21.24
2022-08-07T05:53:04.140Z,21.19
2022-08-07T05:56:02.975Z,21.17
2022-08-07T05:58:36.357Z,21.15
2022-08-07T06:01:11.140Z,21.17
2022-08-07T06:03:57.233Z,21.18
2022-08-07T06:06:29.832Z,21.08
2022-08-07T06:09:01.243Z,21.20
2022-08-07T06:11:34.538Z,21.20
2022-08-07T06:14:12.788Z,21.29
2022-08-07T06:16:50.700Z,21.26
2022-08-07T06:19:57.880Z,21.40
2022-08-07T06:22:20.372Z,21.40
2022-08-07T06:24:58.159Z,21.18
2022-08-07T06:27:59.906Z,21.45
2022-08-07T06:30:31.820Z,21.53
2022-08-07T06:33:04.077Z,21.57
2022-08-07T06:35:39.309Z,21.46
2022-08-07T06:38:20.426Z,21.51
2022-08-07T06:40:53.012Z,21.49
2022-08-07T06:43:24.557Z,21.47
2022-08-07T06:45:51.730Z,21.61
2022-08-07T06:48:24.667Z,21.71
2022-08-07T06:50:54.791Z,21.86
2022-08-07T06:55:28.451Z,21.95
2022-08-07T06:56:14.897Z,21.95
2022-08-07T07:00:14.350Z,22.00
2022-08-07T07:01:43.633Z,21.98
2022-08-07T07:04:28.620Z,22.03
2022-08-07T07:07:18.801Z,22.06
2022-08-07T07:09:49.797Z,22.12
2022-08-07T07:12:53.512Z,22.21
2022-08-07T07:15:32.466Z,22.24
2022-08-07T07:18:15.341Z,22.28
2022-08-07T07:21:13.637Z,22.34
2022-08-07T07:24:09.211Z,22.39
2022-08-07T07:26:40.932Z,22.47
2022-08-07T07:29:56.806Z,22.40
2022-08-07T07:32:14.743Z,22.32
2022-08-07T07:34:48.568Z,22.37
2022-08-07T07:37:45.216Z,22.41
2022-08-07T07:40:14.812Z,22.44
2022-08-07T07:42:54.023Z,22.48
2022-08-07T07:46:39.753Z,22.56
2022-08-07T07:48:35.025Z,22.61
2022-08-07T07:51:07.874Z,22.68
2022-08-07T07:53:51.774Z,22.76
2022-08-07T07:56:30.669Z,22.83
2022-08-07T07:59:01.962Z,22.92
2022-08-07T08:02:02.744Z,23.10
2022-08-07T08:04:28.575Z,23.17
2022-08-07T08:07:02.699Z,23.22
2022-08-07T08:09:52.319Z,23.35
2022-08-07T08:12:52.045Z,23.49
2022-08-07T08:15:13.402Z,23.61
2022-08-07T08:17:58.037Z,23.70
2022-08-07T08:20:32.083Z,23.79
2022-08-07T08:23:20.749Z,23.73
2022-08-07T08:26:12.610Z,23.88
2022-08-07T08:28:46.077Z,23.97
2022-08-07T08:31:29.940Z,24.03
2022-08-07T08:34:12.453Z,24.08
2022-08-07T08:36:49.326Z,24.17
2022-08-07T08:39:38.909Z,24.10
2022-08-07T08:42:36.427Z,24.01
2022-08-07T08:45:19.635Z,24.05
2022-08-07T08:48:22.277Z,24.02
2022-08-07T08:51:14.543Z,23.99
2022-08-07T08:54:29.541Z,24.02
2022-08-07T08:57:04.259Z,24.03
2022-08-07T08:59:53.729Z,23.99
2022-08-07T09:02:40.695Z,23.99
2022-08-07T09:05:51.783Z,24.10
2022-08-07T09:08:41.873Z,24.12
2022-08-07T09:11:50.592Z,24.15
2022-08-07T09:14:58.853Z,24.25
2022-08-07T09:17:59.033Z,24.16
2022-08-07T09:20:58.324Z,24.11
2022-08-07T09:24:31.769Z,23.93
2022-08-07T09:27:09.169Z,23.58
2022-08-07T09:30:05.592Z,23.67
2022-08-07T09:32:50.132Z,23.80
2022-08-07T09:36:04.629Z,23.85
2022-08-07T09:38:37.497Z,24.01
2022-08-07T09:41:43.551Z,23.98
2022-08-07T09:47:20.399Z,23.88
2022-08-07T09:48:04.017Z,23.85
2022-08-07T09:51:02.885Z,23.87
2022-08-07T09:53:48.921Z,23.85
2022-08-07T09:56:58.524Z,23.69
2022-08-07T10:00:07.795Z,23.55
2022-08-07T10:04:05.602Z,23.72
2022-08-07T10:06:41.617Z,23.85
2022-08-07T10:10:01.132Z,23.76
2022-08-07T10:13:29.835Z,23.58
2022-08-07T10:16:41.806Z,23.42
2022-08-07T10:19:39.254Z,23.39
2022-08-07T10:22:37.481Z,23.54
2022-08-07T10:25:44.914Z,23.75
2022-08-07T10:28:28.126Z,23.96
2022-08-07T10:31:28.486Z,24.09
2022-08-07T10:34:15.750Z,24.16
2022-08-07T10:37:15.364Z,24.10
2022-08-07T10:40:14.589Z,24.27
2022-08-07T10:43:13.330Z,23.40
2022-08-07T10:45:58.284Z,24.23
2022-08-07T10:48:35.008Z,24.22
2022-08-07T10:51:39.643Z,23.10
2022-08-07T10:54:38.014Z,24.01
2022-08-07T10:57:35.281Z,23.99
2022-08-07T11:00:36.998Z,23.86
2022-08-07T11:03:21.565Z,23.99
2022-08-07T11:06:18.541Z,23.91
2022-08-07T11:09:02.981Z,23.77
2022-08-07T11:11:44.577Z,23.60
2022-08-07T11:15:00.445Z,23.54
2022-08-07T11:17:46.321Z,23.52
2022-08-07T11:20:24.709Z,23.51
2022-08-07T11:23:20.831Z,23.52
2022-08-07T11:26:38.509Z,23.39
2022-08-07T11:29:42.007Z,23.27
2022-08-07T11:32:25.814Z,23.29
2022-08-07T11:35:16.640Z,23.15
2022-08-07T11:38:31.757Z,22.87
2022-08-07T11:41:09.391Z,22.89
2022-08-07T11:44:12.237Z,22.76
2022-08-07T11:47:26.078Z,22.82
2022-08-07T11:50:35.363Z,22.89
2022-08-07T11:53:43.342Z,22.92
2022-08-07T11:57:12.807Z,22.92
2022-08-07T12:00:18.795Z,22.85
2022-08-07T12:03:44.423Z,22.69
2022-08-07T12:06:37.904Z,22.71
2022-08-07T12:09:49.335Z,22.64
2022-08-07T12:12:50.329Z,22.69
2022-08-07T12:15:46.496Z,22.63
2022-08-07T12:18:36.739Z,22.70
2022-08-07T12:22:35.896Z,22.90
2022-08-07T12:26:00.272Z,22.99
2022-08-07T12:28:10.071Z,22.91
2022-08-07T12:30:46.764Z,22.90
2022-08-07T12:33:28.162Z,23.04
2022-08-07T12:36:02.511Z,23.03
2022-08-07T12:38:43.026Z,23.18
2022-08-07T12:41:16.517Z,23.31
2022-08-07T12:44:03.180Z,23.49
2022-08-07T12:47:21.841Z,23.65
2022-08-07T12:50:39.428Z,23.65
2022-08-07T12:54:03.188Z,23.53
2022-08-07T12:56:50.984Z,23.50
2022-08-07T12:59:33.102Z,23.34
2022-08-07T13:02:42.242Z,23.51
2022-08-07T13:06:03.333Z,23.37
2022-08-07T13:08:41.325Z,23.27
2022-08-07T13:12:00.930Z,23.17
2022-08-07T13:14:55.411Z,23.16
2022-08-07T13:17:46.626Z,23.15
2022-08-07T13:20:27.499Z,23.22
2022-08-07T13:23:59.961Z,23.25
2022-08-07T13:26:15.995Z,23.15
2022-08-07T13:29:15.127Z,23.09
2022-08-07T13:32:32.668Z,23.14
2022-08-07T13:36:01.354Z,23.20
2022-08-07T13:38:45.348Z,23.42
2022-08-07T13:41:35.664Z,23.50
2022-08-07T13:44:13.150Z,23.43
2022-08-07T13:46:49.643Z,23.40
2022-08-07T13:50:34.004Z,23.41
2022-08-07T13:52:26.539Z,23.31
2022-08-07T13:55:06.472Z,23.29
2022-08-07T13:57:38.789Z,23.40
2022-08-07T14:00:50.393Z,23.56
2022-08-07T14:03:28.900Z,23.73
2022-08-07T14:05:58.752Z,23.88
2022-08-07T14:08:28.258Z,24.01
2022-08-07T14:11:01.978Z,23.97
2022-08-07T14:13:56.074Z,23.93
2022-08-07T14:16:38.567Z,23.92
2022-08-07T14:20:40.630Z,24.02
2022-08-07T14:22:18.681Z,24.01
2022-08-07T14:25:11.888Z,23.96
2022-08-07T14:28:10.688Z,23.99
2022-08-07T14:30:36.970Z,23.96
2022-08-07T14:33:09.076Z,23.90
2022-08-07T14:35:45.413Z,23.67
2022-08-07T14:38:31.304Z,23.52
2022-08-07T14:41:12.424Z,23.43
2022-08-07T14:43:57.911Z,23.37
2022-08-07T14:46:37.172Z,23.35
2022-08-07T14:49:57.338Z,23.32
2022-08-07T14:52:16.790Z,23.27
2022-08-07T14:54:45.914Z,23.38
2022-08-07T14:57:19.657Z,23.37
2022-08-07T15:00:03.270Z,23.16
2022-08-07T15:02:37.179Z,23.33
2022-08-07T15:05:20.626Z,23.35
2022-08-07T15:07:53.283Z,23.28
2022-08-07T15:10:26.332Z,23.33
2022-08-07T15:15:57.588Z,23.17
2022-08-07T15:18:52.703Z,23.05
2022-08-07T15:21:43.957Z,23.09
2022-08-07T15:25:12.747Z,23.06
2022-08-07T15:27:17.705Z,22.95
2022-08-07T15:30:06.467Z,23.04
2022-08-07T15:33:01.360Z,23.08
2022-08-07T15:35:40.648Z,23.02
2022-08-07T15:38:51.032Z,22.97
2022-08-07T15:42:42.329Z,22.95
2022-08-07T15:44:15.113Z,22.90
2022-08-07T15:46:51.908Z,22.85
2022-08-07T15:52:29.978Z,22.92
2022-08-07T15:55:03.948Z,22.88
2022-08-07T15:57:39.961Z,22.80
2022-08-07T16:00:31.967Z,22.64
2022-08-07T16:03:21.362Z,22.63
2022-08-07T16:06:03.193Z,22.51
2022-08-07T16:08:38.624Z,22.59
2022-08-07T16:11:43.145Z,22.60
2022-08-07T16:14:32.826Z,22.60
2022-08-07T16:18:01.947Z,22.67
2022-08-07T16:20:55.114Z,22.64
2022-08-07T16:24:34.245Z,22.60
2022-08-07T16:27:18.068Z,22.60
2022-08-07T16:30:31.620Z,22.62
2022-08-07T16:34:02.171Z,22.58
2022-08-07T16:37:02.481Z,22.57
2022-08-07T16:40:28.328Z,22.55
2022-08-07T16:44:02.321Z,22.56
2022-08-07T16:47:06.815Z,22.50
2022-08-07T16:50:20.804Z,22.50
2022-08-07T16:54:06.543Z,22.47
2022-08-07T16:57:01.743Z,22.45
2022-08-07T16:59:58.147Z,22.39
2022-08-07T17:02:51.300Z,22.32
2022-08-07T17:06:28.285Z,22.34
2022-08-07T17:09:09.915Z,22.30
2022-08-07T17:12:33.914Z,22.32
2022-08-07T17:15:43.889Z,22.28
2022-08-07T17:18:53.602Z,22.28
2022-08-07T17:21:51.308Z,22.21
2022-08-07T17:24:41.845Z,22.21
2022-08-07T17:27:35.892Z,22.13
2022-08-07T17:30:19.499Z,22.14
2022-08-07T17:34:10.393Z,22.11
2022-08-07T17:36:12.007Z,22.05
2022-08-07T17:39:01.788Z,22.10
2022-08-07T17:42:06.980Z,22.12
2022-08-07T17:44:50.635Z,22.12
2022-08-07T17:47:54.586Z,22.14
2022-08-07T17:51:22.996Z,22.14
2022-08-07T17:54:29.703Z,22.16
2022-08-07T17:57:21.821Z,22.12
2022-08-07T17:59:59.746Z,22.12
2022-08-07T18:02:56.759Z,22.13
2022-08-07T18:06:03.523Z,21.88
2022-08-07T18:09:01.397Z,22.12
2022-08-07T18:12:16.226Z,22.09
2022-08-07T18:14:51.061Z,22.02
2022-08-07T18:18:45.173Z,22.03
2022-08-07T18:21:10.963Z,22.03
2022-08-07T18:24:07.233Z,22.02
2022-08-07T18:26:57.013Z,22.01
2022-08-07T18:30:08.343Z,21.99
2022-08-07T18:32:56.114Z,22.00
2022-08-07T18:36:33.354Z,22.00
2022-08-07T18:40:05.226Z,21.98
2022-08-07T18:42:27.645Z,21.97
2022-08-07T18:45:43.597Z,21.93
2022-08-07T18:50:03.384Z,21.96
2022-08-07T18:52:35.317Z,21.92
2022-08-07T18:55:40.923Z,21.90
2022-08-07T18:58:41.533Z,21.84
2022-08-07T19:02:18.550Z,21.81
2022-08-07T19:04:59.421Z,21.76
2022-08-07T19:07:58.700Z,21.74
2022-08-07T19:10:51.360Z,21.71
2022-08-07T19:13:57.681Z,21.67
2022-08-07T19:17:05.556Z,21.65
2022-08-07T19:20:29.209Z,21.59
2022-08-07T19:23:18.964Z,21.56
2022-08-07T19:26:24.870Z,21.52
2022-08-07T19:30:54.833Z,21.47
2022-08-07T19:32:17.124Z,21.44
2022-08-07T19:34:55.190Z,21.35
2022-08-07T19:37:24.617Z,21.40
2022-08-07T19:40:14.633Z,21.38
2022-08-07T19:42:45.753Z,21.36
2022-08-07T19:46:07.433Z,21.31
2022-08-07T19:48:18.952Z,21.27
2022-08-07T19:50:53.398Z,21.21
2022-08-07T19:54:32.942Z,21.19
2022-08-07T19:58:01.300Z,21.20
2022-08-07T19:59:02.479Z,21.15
2022-08-07T20:01:52.314Z,21.18
2022-08-07T20:04:43.076Z,21.10
2022-08-07T20:07:23.911Z,21.16
2022-08-07T20:10:36.938Z,21.10
2022-08-07T20:12:58.093Z,21.06
2022-08-07T20:15:32.745Z,21.12
2022-08-07T20:18:05.859Z,21.14
2022-08-07T20:20:43.418Z,21.13
2022-08-07T20:23:32.949Z,21.11
2022-08-07T20:26:10.024Z,21.09
2022-08-07T20:28:41.362Z,21.06
2022-08-07T20:31:21.687Z,21.00
2022-08-07T20:33:57.521Z,21.03
2022-08-07T20:36:32.005Z,21.01
2022-08-07T20:39:00.545Z,21.00
2022-08-07T20:41:38.279Z,20.99
2022-08-07T20:44:12.333Z,20.97
2022-08-07T20:46:44.150Z,20.94
2022-08-07T20:50:00.566Z,20.88
2022-08-07T20:52:16.629Z,20.70
2022-08-07T20:54:54.159Z,20.86
2022-08-07T20:57:28.729Z,20.87
2022-08-07T21:00:09.245Z,20.84
2022-08-07T21:02:58.076Z,20.84
2022-08-07T21:05:55.699Z,20.78
2022-08-07T21:08:57.007Z,20.78
2022-08-07T21:11:46.210Z,20.74
2022-08-07T21:14:32.942Z,20.69
2022-08-07T21:18:03.625Z,20.67
2022-08-07T21:20:05.215Z,20.69
2022-08-07T21:22:51.279Z,20.68
2022-08-07T21:25:29.584Z,20.64
2022-08-07T21:28:47.575Z,20.59
2022-08-07T21:32:43.124Z,20.61
2022-08-07T21:34:46.295Z,20.57
2022-08-07T21:37:59.208Z,20.55
2022-08-07T21:40:49.500Z,20.45
2022-08-07T21:43:56.056Z,20.44
2022-08-07T21:47:07.431Z,20.47
2022-08-07T21:50:03.626Z,20.42
2022-08-07T21:53:09.390Z,20.41
2022-08-07T21:56:06.948Z,20.38
2022-08-07T21:59:16.970Z,20.35
2022-08-07T22:02:10.384Z,20.33
2022-08-07T22:04:54.000Z,20.29
2022-08-07T22:07:31.485Z,20.28
2022-08-07T22:10:07.142Z,20.29
2022-08-07T22:13:12.645Z,20.28
2022-08-07T22:16:42.807Z,20.27
2022-08-07T22:19:09.230Z,20.25
2022-08-07T22:22:04.495Z,20.16
2022-08-07T22:24:56.774Z,20.16
2022-08-07T22:28:06.427Z,20.19
2022-08-07T22:30:52.936Z,20.10
2022-08-07T22:33:57.055Z,20.13
2022-08-07T22:36:57.930Z,20.11
2022-08-07T22:39:52.975Z,20.12
2022-08-07T22:42:29.538Z,20.10
2022-08-07T22:45:03.608Z,20.09
2022-08-07T22:48:31.695Z,20.07
2022-08-07T22:51:41.334Z,20.03
2022-08-07T22:54:58.265Z,20.01
2022-08-07T22:58:10.334Z,19.97
2022-08-07T23:01:05.422Z,19.94
2022-08-07T23:04:01.848Z,19.91
2022-08-07T23:07:01.499Z,19.90
2022-08-07T23:10:03.699Z,19.89
2022-08-07T23:12:44.845Z,19.87
2022-08-07T23:15:21.848Z,19.85
2022-08-07T23:18:18.138Z,19.83
2022-08-07T23:21:30.483Z,19.81
2022-08-07T23:24:45.725Z,19.78
2022-08-07T23:27:33.598Z,19.78
2022-08-07T23:30:39.545Z,19.53
2022-08-07T23:34:36.887Z,19.75
2022-08-07T23:36:17.476Z,19.74
2022-08-07T23:39:09.766Z,19.74
2022-08-07T23:42:04.499Z,19.72
2022-08-07T23:45:02.278Z,19.73
2022-08-07T23:48:03.981Z,19.75
2022-08-07T23:50:54.434Z,19.77
2022-08-07T23:53:49.561Z,19.76
2022-08-07T23:57:04.408Z,19.76
